sensor_id;sensor_type;location;lat;lon;timestamp;P1;durP1;ratioP1;P2;durP2;ratioP2
40595;SDS011;26304;48.794;9.820;2023-08-21T00:01:29;7.80;;;7.20;;
40595;SDS011;26304;48.794;9.820;2023-08-21T00:03:52;7.38;;;6.88;;
40595;SDS011;26304;48.794;9.820;2023-08-21T00:06:15;7.55;;;6.95;;
40595;SDS011;26304;48.794;9.820;2023-08-21T00:08:37;7.63;;;7.07;;
40595;SDS011;26304;48.794;9.820;2023-08-21T00:10:59;7.32;;;6.82;;
40595;SDS011;26304;48.794;9.820;2023-08-21T00:13:22;7.80;;;7.10;;
40595;SDS011;26304;48.794;9.820;2023-08-21T00:15:44;7.53;;;7.03;;
40595;SDS011;26304;48.794;9.820;2023-08-21T00:18:06;7.50;;;6.93;;
40595;SDS011;26304;48.794;9.820;2023-08-21T00:20:30;7.93;;;7.32;;
40595;SDS011;26304;48.794;9.820;2023-08-21T00:22:53;7.22;;;6.72;;
40595;SDS011;26304;48.794;9.820;2023-08-21T00:25:15;7.28;;;6.68;;
40595;SDS011;26304;48.794;9.820;2023-08-21T00:27:38;7.03;;;6.60;;
40595;SDS011;26304;48.794;9.820;2023-08-21T00:30:00;7.68;;;7.07;;
40595;SDS011;26304;48.794;9.820;2023-08-21T00:32:23;8.35;;;7.53;;
40595;SDS011;26304;48.794;9.820;2023-08-21T00:34:45;7.82;;;7.13;;
40595;SDS011;26304;48.794;9.820;2023-08-21T00:37:09;8.18;;;7.38;;
40595;SDS011;26304;48.794;9.820;2023-08-21T00:39:31;7.78;;;7.22;;
40595;SDS011;26304;48.794;9.820;2023-08-21T00:41:54;7.78;;;7.25;;
40595;SDS011;26304;48.794;9.820;2023-08-21T00:44:16;7.88;;;7.18;;
40595;SDS011;26304;48.794;9.820;2023-08-21T00:46:39;7.38;;;6.88;;
40595;SDS011;26304;48.794;9.820;2023-08-21T00:49:01;7.80;;;7.20;;
40595;SDS011;26304;48.794;9.820;2023-08-21T00:51:24;7.32;;;6.70;;
40595;SDS011;26304;48.794;9.820;2023-08-21T00:53:48;8.43;;;7.70;;
40595;SDS011;26304;48.794;9.820;2023-08-21T00:56:10;9.13;;;8.32;;
40595;SDS011;26304;48.794;9.820;2023-08-21T00:58:33;9.02;;;8.25;;
40595;SDS011;26304;48.794;9.820;2023-08-21T01:00:55;8.38;;;7.75;;
40595;SDS011;26304;48.794;9.820;2023-08-21T01:03:18;8.60;;;7.93;;
40595;SDS011;26304;48.794;9.820;2023-08-21T01:05:41;8.45;;;7.65;;
40595;SDS011;26304;48.794;9.820;2023-08-21T01:08:05;8.75;;;8.15;;
40595;SDS011;26304;48.794;9.820;2023-08-21T01:10:37;8.52;;;7.93;;
40595;SDS011;26304;48.794;9.820;2023-08-21T01:13:06;8.60;;;7.65;;
40595;SDS011;26304;48.794;9.820;2023-08-21T01:15:33;7.75;;;7.15;;
40595;SDS011;26304;48.794;9.820;2023-08-21T01:17:56;9.00;;;8.30;;
40595;SDS011;26304;48.794;9.820;2023-08-21T01:20:19;7.22;;;6.72;;
40595;SDS011;26304;48.794;9.820;2023-08-21T01:22:42;7.13;;;6.63;;
40595;SDS011;26304;48.794;9.820;2023-08-21T01:25:08;7.13;;;6.63;;
40595;SDS011;26304;48.794;9.820;2023-08-21T01:27:30;6.82;;;6.38;;
40595;SDS011;26304;48.794;9.820;2023-08-21T01:29:54;7.05;;;6.55;;
40595;SDS011;26304;48.794;9.820;2023-08-21T01:32:18;7.38;;;6.70;;
40595;SDS011;26304;48.794;9.820;2023-08-21T01:34:43;7.40;;;6.80;;
40595;SDS011;26304;48.794;9.820;2023-08-21T01:37:08;7.82;;;7.13;;
40595;SDS011;26304;48.794;9.820;2023-08-21T01:39:30;7.30;;;6.68;;
40595;SDS011;26304;48.794;9.820;2023-08-21T01:41:54;7.63;;;6.93;;
40595;SDS011;26304;48.794;9.820;2023-08-21T01:44:17;7.03;;;6.47;;
40595;SDS011;26304;48.794;9.820;2023-08-21T01:46:40;7.03;;;6.43;;
40595;SDS011;26304;48.794;9.820;2023-08-21T01:49:02;7.25;;;6.68;;
40595;SDS011;26304;48.794;9.820;2023-08-21T01:51:25;6.88;;;6.38;;
40595;SDS011;26304;48.794;9.820;2023-08-21T01:53:47;6.57;;;6.20;;
40595;SDS011;26304;48.794;9.820;2023-08-21T01:56:09;7.68;;;6.97;;
40595;SDS011;26304;48.794;9.820;2023-08-21T01:58:33;6.80;;;6.22;;
40595;SDS011;26304;48.794;9.820;2023-08-21T02:00:55;8.20;;;7.43;;
40595;SDS011;26304;48.794;9.820;2023-08-21T02:03:18;7.55;;;7.05;;
40595;SDS011;26304;48.794;9.820;2023-08-21T02:05:40;7.28;;;6.85;;
40595;SDS011;26304;48.794;9.820;2023-08-21T02:08:03;7.22;;;6.60;;
40595;SDS011;26304;48.794;9.820;2023-08-21T02:10:25;7.60;;;7.00;;
40595;SDS011;26304;48.794;9.820;2023-08-21T02:12:48;7.60;;;7.00;;
40595;SDS011;26304;48.794;9.820;2023-08-21T02:15:12;8.23;;;7.57;;
40595;SDS011;26304;48.794;9.820;2023-08-21T02:17:35;7.80;;;7.28;;
40595;SDS011;26304;48.794;9.820;2023-08-21T02:19:57;7.70;;;7.10;;
40595;SDS011;26304;48.794;9.820;2023-08-21T02:22:20;8.32;;;7.63;;
40595;SDS011;26304;48.794;9.820;2023-08-21T02:24:42;8.75;;;8.00;;
40595;SDS011;26304;48.794;9.820;2023-08-21T02:27:05;8.23;;;7.63;;
40595;SDS011;26304;48.794;9.820;2023-08-21T02:29:27;7.63;;;7.10;;
40595;SDS011;26304;48.794;9.820;2023-08-21T02:31:51;10.10;;;9.20;;
40595;SDS011;26304;48.794;9.820;2023-08-21T02:34:13;8.65;;;8.00;;
40595;SDS011;26304;48.794;9.820;2023-08-21T02:36:35;8.38;;;7.85;;
40595;SDS011;26304;48.794;9.820;2023-08-21T02:38:58;8.15;;;7.55;;
40595;SDS011;26304;48.794;9.820;2023-08-21T02:41:20;8.85;;;8.10;;
40595;SDS011;26304;48.794;9.820;2023-08-21T02:43:43;8.70;;;7.90;;
40595;SDS011;26304;48.794;9.820;2023-08-21T02:46:05;9.73;;;8.73;;
40595;SDS011;26304;48.794;9.820;2023-08-21T02:48:29;9.23;;;8.50;;
40595;SDS011;26304;48.794;9.820;2023-08-21T02:50:51;9.35;;;8.05;;
40595;SDS011;26304;48.794;9.820;2023-08-21T02:53:14;9.20;;;8.40;;
40595;SDS011;26304;48.794;9.820;2023-08-21T02:55:36;8.95;;;8.35;;
40595;SDS011;26304;48.794;9.820;2023-08-21T02:57:58;8.82;;;8.18;;
40595;SDS011;26304;48.794;9.820;2023-08-21T03:00:21;9.10;;;8.40;;
40595;SDS011;26304;48.794;9.820;2023-08-21T03:02:43;8.02;;;7.22;;
40595;SDS011;26304;48.794;9.820;2023-08-21T03:05:07;8.30;;;7.70;;
40595;SDS011;26304;48.794;9.820;2023-08-21T03:07:30;8.88;;;8.07;;
40595;SDS011;26304;48.794;9.820;2023-08-21T03:09:52;7.90;;;7.30;;
40595;SDS011;26304;48.794;9.820;2023-08-21T03:12:15;7.53;;;6.93;;
40595;SDS011;26304;48.794;9.820;2023-08-21T03:14:37;8.18;;;7.43;;
40595;SDS011;26304;48.794;9.820;2023-08-21T03:16:56;8.30;;;7.78;;
40595;SDS011;26304;48.794;9.820;2023-08-21T03:18:59;9.40;;;8.60;;
40595;SDS011;26304;48.794;9.820;2023-08-21T03:21:18;8.95;;;8.25;;
40595;SDS011;26304;48.794;9.820;2023-08-21T03:23:20;9.10;;;8.35;;
40595;SDS011;26304;48.794;9.820;2023-08-21T03:25:42;8.52;;;7.93;;
40595;SDS011;26304;48.794;9.820;2023-08-21T03:28:05;8.93;;;8.32;;
40595;SDS011;26304;48.794;9.820;2023-08-21T03:30:27;9.30;;;8.60;;
40595;SDS011;26304;48.794;9.820;2023-08-21T03:32:38;8.45;;;7.85;;
40595;SDS011;26304;48.794;9.820;2023-08-21T03:34:59;9.10;;;8.30;;
40595;SDS011;26304;48.794;9.820;2023-08-21T03:37:05;8.30;;;7.60;;
40595;SDS011;26304;48.794;9.820;2023-08-21T03:39:27;8.50;;;7.80;;
40595;SDS011;26304;48.794;9.820;2023-08-21T03:41:50;8.27;;;7.65;;
40595;SDS011;26304;48.794;9.820;2023-08-21T03:44:12;8.52;;;7.93;;
40595;SDS011;26304;48.794;9.820;2023-08-21T03:46:35;8.27;;;7.68;;
40595;SDS011;26304;48.794;9.820;2023-08-21T03:48:57;8.50;;;7.80;;
40595;SDS011;26304;48.794;9.820;2023-08-21T03:51:22;8.60;;;8.00;;
40595;SDS011;26304;48.794;9.820;2023-08-21T03:53:46;8.10;;;7.40;;
40595;SDS011;26304;48.794;9.820;2023-08-21T03:56:09;8.50;;;7.90;;
40595;SDS011;26304;48.794;9.820;2023-08-21T03:58:31;9.45;;;8.65;;
40595;SDS011;26304;48.794;9.820;2023-08-21T04:00:36;8.70;;;8.10;;
40595;SDS011;26304;48.794;9.820;2023-08-21T04:02:41;8.90;;;8.18;;
40595;SDS011;26304;48.794;9.820;2023-08-21T04:05:01;8.95;;;8.15;;
40595;SDS011;26304;48.794;9.820;2023-08-21T04:07:22;8.88;;;8.07;;
40595;SDS011;26304;48.794;9.820;2023-08-21T04:09:44;9.27;;;8.30;;
40595;SDS011;26304;48.794;9.820;2023-08-21T04:12:05;8.75;;;8.15;;
40595;SDS011;26304;48.794;9.820;2023-08-21T04:14:25;8.40;;;7.70;;
40595;SDS011;26304;48.794;9.820;2023-08-21T04:16:48;8.85;;;8.13;;
40595;SDS011;26304;48.794;9.820;2023-08-21T04:19:10;9.02;;;8.32;;
40595;SDS011;26304;48.794;9.820;2023-08-21T04:21:13;10.35;;;9.23;;
40595;SDS011;26304;48.794;9.820;2023-08-21T04:23:23;9.77;;;9.05;;
40595;SDS011;26304;48.794;9.820;2023-08-21T04:25:41;9.93;;;9.05;;
40595;SDS011;26304;48.794;9.820;2023-08-21T04:28:04;10.75;;;9.63;;
40595;SDS011;26304;48.794;9.820;2023-08-21T04:30:26;9.82;;;9.13;;
40595;SDS011;26304;48.794;9.820;2023-08-21T04:32:29;11.20;;;10.25;;
40595;SDS011;26304;48.794;9.820;2023-08-21T04:34:49;10.57;;;9.68;;
40595;SDS011;26304;48.794;9.820;2023-08-21T04:37:10;10.77;;;9.98;;
40595;SDS011;26304;48.794;9.820;2023-08-21T04:39:31;9.80;;;9.20;;
40595;SDS011;26304;48.794;9.820;2023-08-21T04:41:53;10.38;;;9.57;;
40595;SDS011;26304;48.794;9.820;2023-08-21T04:44:13;9.77;;;8.98;;
40595;SDS011;26304;48.794;9.820;2023-08-21T04:46:34;10.35;;;9.50;;
40595;SDS011;26304;48.794;9.820;2023-08-21T04:48:49;11.00;;;9.90;;
40595;SDS011;26304;48.794;9.820;2023-08-21T04:51:10;10.80;;;9.93;;
40595;SDS011;26304;48.794;9.820;2023-08-21T04:53:30;9.98;;;9.18;;
40595;SDS011;26304;48.794;9.820;2023-08-21T04:55:32;10.00;;;9.30;;
40595;SDS011;26304;48.794;9.820;2023-08-21T04:57:54;10.90;;;10.00;;
40595;SDS011;26304;48.794;9.820;2023-08-21T05:00:15;10.75;;;9.85;;
40595;SDS011;26304;48.794;9.820;2023-08-21T05:02:25;9.88;;;9.02;;
40595;SDS011;26304;48.794;9.820;2023-08-21T05:04:27;10.07;;;9.30;;
40595;SDS011;26304;48.794;9.820;2023-08-21T05:06:49;11.13;;;10.15;;
40595;SDS011;26304;48.794;9.820;2023-08-21T05:08:58;10.13;;;9.43;;
40595;SDS011;26304;48.794;9.820;2023-08-21T05:11:19;10.68;;;9.98;;
40595;SDS011;26304;48.794;9.820;2023-08-21T05:13:40;9.93;;;9.15;;
40595;SDS011;26304;48.794;9.820;2023-08-21T05:15:43;10.15;;;9.25;;
40595;SDS011;26304;48.794;9.820;2023-08-21T05:17:45;10.05;;;9.15;;
40595;SDS011;26304;48.794;9.820;2023-08-21T05:20:05;9.52;;;8.75;;
40595;SDS011;26304;48.794;9.820;2023-08-21T05:22:28;9.27;;;8.55;;
40595;SDS011;26304;48.794;9.820;2023-08-21T05:24:49;10.68;;;8.80;;
40595;SDS011;26304;48.794;9.820;2023-08-21T05:27:09;9.77;;;8.98;;
40595;SDS011;26304;48.794;9.820;2023-08-21T05:29:35;9.98;;;9.23;;
40595;SDS011;26304;48.794;9.820;2023-08-21T05:31:57;9.35;;;8.65;;
40595;SDS011;26304;48.794;9.820;2023-08-21T05:34:20;9.52;;;8.82;;
40595;SDS011;26304;48.794;9.820;2023-08-21T05:36:42;9.15;;;8.40;;
40595;SDS011;26304;48.794;9.820;2023-08-21T05:39:05;10.60;;;9.80;;
40595;SDS011;26304;48.794;9.820;2023-08-21T05:41:27;9.13;;;8.32;;
40595;SDS011;26304;48.794;9.820;2023-08-21T05:43:50;8.90;;;8.30;;
40595;SDS011;26304;48.794;9.820;2023-08-21T05:46:19;8.40;;;7.82;;
40595;SDS011;26304;48.794;9.820;2023-08-21T05:48:41;8.25;;;7.60;;
40595;SDS011;26304;48.794;9.820;2023-08-21T05:51:04;8.80;;;8.10;;
40595;SDS011;26304;48.794;9.820;2023-08-21T05:53:26;7.07;;;6.57;;
40595;SDS011;26304;48.794;9.820;2023-08-21T05:55:48;9.13;;;8.25;;
40595;SDS011;26304;48.794;9.820;2023-08-21T05:58:11;8.75;;;7.85;;
40595;SDS011;26304;48.794;9.820;2023-08-21T06:00:33;7.93;;;7.38;;
40595;SDS011;26304;48.794;9.820;2023-08-21T06:02:58;8.25;;;7.55;;
40595;SDS011;26304;48.794;9.820;2023-08-21T06:05:20;8.40;;;7.70;;
40595;SDS011;26304;48.794;9.820;2023-08-21T06:07:44;8.68;;;7.93;;
40595;SDS011;26304;48.794;9.820;2023-08-21T06:10:07;7.97;;;7.45;;
40595;SDS011;26304;48.794;9.820;2023-08-21T06:12:32;8.82;;;7.95;;
40595;SDS011;26304;48.794;9.820;2023-08-21T06:14:54;7.78;;;7.10;;
40595;SDS011;26304;48.794;9.820;2023-08-21T06:17:17;8.00;;;7.45;;
40595;SDS011;26304;48.794;9.820;2023-08-21T06:19:41;8.18;;;7.53;;
40595;SDS011;26304;48.794;9.820;2023-08-21T06:22:04;7.88;;;7.28;;
40595;SDS011;26304;48.794;9.820;2023-08-21T06:24:26;7.60;;;7.10;;
40595;SDS011;26304;48.794;9.820;2023-08-21T06:26:50;6.97;;;6.50;;
40595;SDS011;26304;48.794;9.820;2023-08-21T06:29:13;8.07;;;7.47;;
40595;SDS011;26304;48.794;9.820;2023-08-21T06:31:35;7.57;;;7.07;;
40595;SDS011;26304;48.794;9.820;2023-08-21T06:33:58;7.55;;;6.88;;
40595;SDS011;26304;48.794;9.820;2023-08-21T06:36:22;7.97;;;7.35;;
40595;SDS011;26304;48.794;9.820;2023-08-21T06:38:44;7.60;;;7.10;;
40595;SDS011;26304;48.794;9.820;2023-08-21T06:41:07;8.05;;;7.47;;
40595;SDS011;26304;48.794;9.820;2023-08-21T06:43:29;7.00;;;6.50;;
40595;SDS011;26304;48.794;9.820;2023-08-21T06:45:51;8.15;;;7.55;;
40595;SDS011;26304;48.794;9.820;2023-08-21T06:48:14;7.65;;;7.05;;
40595;SDS011;26304;48.794;9.820;2023-08-21T06:50:36;7.90;;;7.40;;
40595;SDS011;26304;48.794;9.820;2023-08-21T06:53:00;6.85;;;6.45;;
40595;SDS011;26304;48.794;9.820;2023-08-21T06:55:23;7.55;;;7.05;;
40595;SDS011;26304;48.794;9.820;2023-08-21T06:57:45;7.07;;;6.50;;
40595;SDS011;26304;48.794;9.820;2023-08-21T07:00:08;7.15;;;6.55;;
40595;SDS011;26304;48.794;9.820;2023-08-21T07:02:32;7.50;;;6.90;;
40595;SDS011;26304;48.794;9.820;2023-08-21T07:04:54;6.97;;;6.47;;
40595;SDS011;26304;48.794;9.820;2023-08-21T07:07:17;7.32;;;6.82;;
40595;SDS011;26304;48.794;9.820;2023-08-21T07:09:40;6.97;;;6.47;;
40595;SDS011;26304;48.794;9.820;2023-08-21T07:12:03;7.00;;;6.60;;
40595;SDS011;26304;48.794;9.820;2023-08-21T07:14:26;7.78;;;7.07;;
40595;SDS011;26304;48.794;9.820;2023-08-21T07:16:48;7.20;;;6.70;;
40595;SDS011;26304;48.794;9.820;2023-08-21T07:19:11;7.43;;;6.85;;
40595;SDS011;26304;48.794;9.820;2023-08-21T07:21:33;7.18;;;6.68;;
40595;SDS011;26304;48.794;9.820;2023-08-21T07:23:57;7.70;;;7.10;;
40595;SDS011;26304;48.794;9.820;2023-08-21T07:26:20;6.80;;;6.30;;
40595;SDS011;26304;48.794;9.820;2023-08-21T07:28:43;7.45;;;6.85;;
40595;SDS011;26304;48.794;9.820;2023-08-21T07:31:06;6.47;;;6.00;;
40595;SDS011;26304;48.794;9.820;2023-08-21T07:33:28;7.10;;;6.60;;
40595;SDS011;26304;48.794;9.820;2023-08-21T07:35:56;6.82;;;6.32;;
40595;SDS011;26304;48.794;9.820;2023-08-21T07:38:19;6.75;;;6.25;;
40595;SDS011;26304;48.794;9.820;2023-08-21T07:40:41;6.50;;;6.10;;
40595;SDS011;26304;48.794;9.820;2023-08-21T07:43:05;6.75;;;6.20;;
40595;SDS011;26304;48.794;9.820;2023-08-21T07:45:27;6.05;;;5.65;;
40595;SDS011;26304;48.794;9.820;2023-08-21T07:47:50;6.32;;;5.93;;
40595;SDS011;26304;48.794;9.820;2023-08-21T07:50:12;6.70;;;6.10;;
40595;SDS011;26304;48.794;9.820;2023-08-21T07:52:37;6.60;;;6.18;;
40595;SDS011;26304;48.794;9.820;2023-08-21T07:55:00;6.82;;;6.43;;
40595;SDS011;26304;48.794;9.820;2023-08-21T07:57:22;6.40;;;5.90;;
40595;SDS011;26304;48.794;9.820;2023-08-21T07:59:46;6.63;;;6.18;;
40595;SDS011;26304;48.794;9.820;2023-08-21T08:02:09;6.30;;;5.88;;
40595;SDS011;26304;48.794;9.820;2023-08-21T08:04:32;6.18;;;5.78;;
40595;SDS011;26304;48.794;9.820;2023-08-21T08:06:55;5.88;;;5.40;;
40595;SDS011;26304;48.794;9.820;2023-08-21T08:09:17;5.70;;;5.30;;
40595;SDS011;26304;48.794;9.820;2023-08-21T08:11:40;6.28;;;5.88;;
40595;SDS011;26304;48.794;9.820;2023-08-21T08:14:02;6.13;;;5.72;;
40595;SDS011;26304;48.794;9.820;2023-08-21T08:16:26;6.95;;;6.45;;
40595;SDS011;26304;48.794;9.820;2023-08-21T08:18:38;6.15;;;5.82;;
40595;SDS011;26304;48.794;9.820;2023-08-21T08:20:58;6.30;;;5.90;;
40595;SDS011;26304;48.794;9.820;2023-08-21T08:23:01;6.15;;;5.75;;
40595;SDS011;26304;48.794;9.820;2023-08-21T08:25:22;6.43;;;5.85;;
40595;SDS011;26304;48.794;9.820;2023-08-21T08:27:30;6.13;;;5.63;;
40595;SDS011;26304;48.794;9.820;2023-08-21T08:29:53;6.18;;;5.78;;
40595;SDS011;26304;48.794;9.820;2023-08-21T08:32:16;6.45;;;5.95;;
40595;SDS011;26304;48.794;9.820;2023-08-21T08:34:39;6.88;;;6.22;;
40595;SDS011;26304;48.794;9.820;2023-08-21T08:36:43;6.93;;;6.18;;
40595;SDS011;26304;48.794;9.820;2023-08-21T08:38:45;6.57;;;5.90;;
40595;SDS011;26304;48.794;9.820;2023-08-21T08:41:06;7.00;;;5.57;;
40595;SDS011;26304;48.794;9.820;2023-08-21T08:43:33;6.75;;;6.30;;
40595;SDS011;26304;48.794;9.820;2023-08-21T08:45:41;6.50;;;6.10;;
40595;SDS011;26304;48.794;9.820;2023-08-21T08:47:47;7.28;;;6.22;;
40595;SDS011;26304;48.794;9.820;2023-08-21T08:50:08;7.22;;;6.53;;
40595;SDS011;26304;48.794;9.820;2023-08-21T08:52:10;6.45;;;5.95;;
40595;SDS011;26304;48.794;9.820;2023-08-21T08:54:13;5.60;;;5.20;;
40595;SDS011;26304;48.794;9.820;2023-08-21T08:56:18;6.65;;;6.18;;
40595;SDS011;26304;48.794;9.820;2023-08-21T08:58:20;6.18;;;5.65;;
40595;SDS011;26304;48.794;9.820;2023-08-21T09:00:21;6.10;;;5.60;;
40595;SDS011;26304;48.794;9.820;2023-08-21T09:02:23;6.53;;;6.03;;
40595;SDS011;26304;48.794;9.820;2023-08-21T09:04:27;6.22;;;5.78;;
40595;SDS011;26304;48.794;9.820;2023-08-21T09:06:28;6.07;;;5.45;;
40595;SDS011;26304;48.794;9.820;2023-08-21T09:08:53;6.03;;;5.63;;
40595;SDS011;26304;48.794;9.820;2023-08-21T09:11:00;6.22;;;5.72;;
40595;SDS011;26304;48.794;9.820;2023-08-21T09:13:22;6.20;;;5.80;;
40595;SDS011;26304;48.794;9.820;2023-08-21T09:15:43;6.75;;;6.15;;
40595;SDS011;26304;48.794;9.820;2023-08-21T09:17:52;6.10;;;5.70;;
40595;SDS011;26304;48.794;9.820;2023-08-21T09:20:15;6.18;;;5.78;;
40595;SDS011;26304;48.794;9.820;2023-08-21T09:22:35;6.82;;;6.32;;
40595;SDS011;26304;48.794;9.820;2023-08-21T09:25:00;6.13;;;5.72;;
40595;SDS011;26304;48.794;9.820;2023-08-21T09:27:25;6.53;;;6.03;;
40595;SDS011;26304;48.794;9.820;2023-08-21T09:29:46;6.03;;;5.47;;
40595;SDS011;26304;48.794;9.820;2023-08-21T09:32:07;7.07;;;6.47;;
40595;SDS011;26304;48.794;9.820;2023-08-21T09:34:33;6.57;;;6.03;;
40595;SDS011;26304;48.794;9.820;2023-08-21T09:36:56;6.40;;;5.80;;
40595;SDS011;26304;48.794;9.820;2023-08-21T09:39:17;7.20;;;6.50;;
40595;SDS011;26304;48.794;9.820;2023-08-21T09:41:25;7.20;;;6.30;;
40595;SDS011;26304;48.794;9.820;2023-08-21T09:43:47;7.97;;;6.75;;
40595;SDS011;26304;48.794;9.820;2023-08-21T09:46:04;6.90;;;6.40;;
40595;SDS011;26304;48.794;9.820;2023-08-21T09:48:25;8.27;;;6.40;;
40595;SDS011;26304;48.794;9.820;2023-08-21T09:50:47;7.93;;;5.93;;
40595;SDS011;26304;48.794;9.820;2023-08-21T09:53:09;6.40;;;5.38;;
40595;SDS011;26304;48.794;9.820;2023-08-21T09:55:31;9.73;;;5.95;;
40595;SDS011;26304;48.794;9.820;2023-08-21T09:57:42;6.10;;;5.60;;
40595;SDS011;26304;48.794;9.820;2023-08-21T10:00:05;7.13;;;5.47;;
40595;SDS011;26304;48.794;9.820;2023-08-21T10:02:16;6.10;;;5.50;;
40595;SDS011;26304;48.794;9.820;2023-08-21T10:04:18;5.68;;;5.20;;
40595;SDS011;26304;48.794;9.820;2023-08-21T10:06:42;6.20;;;5.78;;
40595;SDS011;26304;48.794;9.820;2023-08-21T10:09:08;5.80;;;5.28;;
40595;SDS011;26304;48.794;9.820;2023-08-21T10:11:30;6.05;;;5.55;;
40595;SDS011;26304;48.794;9.820;2023-08-21T10:13:53;5.80;;;5.40;;
40595;SDS011;26304;48.794;9.820;2023-08-21T10:16:18;5.10;;;4.80;;
40595;SDS011;26304;48.794;9.820;2023-08-21T10:18:43;5.43;;;5.03;;
40595;SDS011;26304;48.794;9.820;2023-08-21T10:20:46;5.90;;;5.50;;
40595;SDS011;26304;48.794;9.820;2023-08-21T10:23:08;5.90;;;5.40;;
40595;SDS011;26304;48.794;9.820;2023-08-21T10:25:30;5.93;;;5.43;;
40595;SDS011;26304;48.794;9.820;2023-08-21T10:27:38;5.63;;;5.20;;
40595;SDS011;26304;48.794;9.820;2023-08-21T10:29:58;5.53;;;5.20;;
40595;SDS011;26304;48.794;9.820;2023-08-21T10:32:19;5.30;;;4.90;;
40595;SDS011;26304;48.794;9.820;2023-08-21T10:34:43;5.65;;;5.20;;
40595;SDS011;26304;48.794;9.820;2023-08-21T10:37:12;5.20;;;4.80;;
40595;SDS011;26304;48.794;9.820;2023-08-21T10:39:14;5.75;;;5.35;;
40595;SDS011;26304;48.794;9.820;2023-08-21T10:41:37;5.50;;;5.10;;
40595;SDS011;26304;48.794;9.820;2023-08-21T10:43:58;5.35;;;4.95;;
40595;SDS011;26304;48.794;9.820;2023-08-21T10:46:19;5.50;;;5.03;;
40595;SDS011;26304;48.794;9.820;2023-08-21T10:48:24;6.22;;;5.72;;
40595;SDS011;26304;48.794;9.820;2023-08-21T10:50:30;6.68;;;5.18;;
40595;SDS011;26304;48.794;9.820;2023-08-21T10:52:51;5.45;;;4.85;;
40595;SDS011;26304;48.794;9.820;2023-08-21T10:54:57;6.53;;;5.93;;
40595;SDS011;26304;48.794;9.820;2023-08-21T10:57:20;5.45;;;5.05;;
40595;SDS011;26304;48.794;9.820;2023-08-21T10:59:52;5.80;;;5.40;;
40595;SDS011;26304;48.794;9.820;2023-08-21T11:02:13;5.85;;;5.35;;
40595;SDS011;26304;48.794;9.820;2023-08-21T11:04:39;6.15;;;5.65;;
40595;SDS011;26304;48.794;9.820;2023-08-21T11:06:44;6.10;;;5.70;;
40595;SDS011;26304;48.794;9.820;2023-08-21T11:09:11;5.68;;;5.22;;
40595;SDS011;26304;48.794;9.820;2023-08-21T11:11:34;6.20;;;5.70;;
40595;SDS011;26304;48.794;9.820;2023-08-21T11:13:56;5.95;;;5.55;;
40595;SDS011;26304;48.794;9.820;2023-08-21T11:16:04;5.82;;;5.40;;
40595;SDS011;26304;48.794;9.820;2023-08-21T11:18:29;6.07;;;5.38;;
40595;SDS011;26304;48.794;9.820;2023-08-21T11:20:50;6.95;;;5.78;;
40595;SDS011;26304;48.794;9.820;2023-08-21T11:23:10;6.70;;;6.20;;
40595;SDS011;26304;48.794;9.820;2023-08-21T11:25:32;7.10;;;6.50;;
40595;SDS011;26304;48.794;9.820;2023-08-21T11:27:50;7.70;;;6.40;;
40595;SDS011;26304;48.794;9.820;2023-08-21T11:30:14;6.82;;;6.22;;
40595;SDS011;26304;48.794;9.820;2023-08-21T11:32:37;6.70;;;6.05;;
40595;SDS011;26304;48.794;9.820;2023-08-21T11:34:59;8.32;;;6.20;;
40595;SDS011;26304;48.794;9.820;2023-08-21T11:37:22;6.78;;;6.20;;
40595;SDS011;26304;48.794;9.820;2023-08-21T11:39:46;12.82;;;6.85;;
40595;SDS011;26304;48.794;9.820;2023-08-21T11:42:10;7.85;;;6.18;;
40595;SDS011;26304;48.794;9.820;2023-08-21T11:44:33;13.70;;;6.50;;
40595;SDS011;26304;48.794;9.820;2023-08-21T11:47:03;8.48;;;6.90;;
40595;SDS011;26304;48.794;9.820;2023-08-21T11:49:26;11.52;;;7.75;;
40595;SDS011;26304;48.794;9.820;2023-08-21T11:51:48;11.20;;;7.55;;
40595;SDS011;26304;48.794;9.820;2023-08-21T11:54:11;8.75;;;7.22;;
40595;SDS011;26304;48.794;9.820;2023-08-21T11:56:33;8.10;;;6.90;;
40595;SDS011;26304;48.794;9.820;2023-08-21T11:58:45;8.38;;;7.65;;
40595;SDS011;26304;48.794;9.820;2023-08-21T12:01:04;10.10;;;7.35;;
40595;SDS011;26304;48.794;9.820;2023-08-21T12:03:08;8.65;;;7.75;;
40595;SDS011;26304;48.794;9.820;2023-08-21T12:05:32;8.15;;;7.30;;
40595;SDS011;26304;48.794;9.820;2023-08-21T12:07:54;7.90;;;7.22;;
40595;SDS011;26304;48.794;9.820;2023-08-21T12:10:13;9.30;;;7.93;;
40595;SDS011;26304;48.794;9.820;2023-08-21T12:12:33;8.98;;;8.07;;
40595;SDS011;26304;48.794;9.820;2023-08-21T12:14:54;8.80;;;7.90;;
40595;SDS011;26304;48.794;9.820;2023-08-21T12:16:57;8.73;;;8.02;;
40595;SDS011;26304;48.794;9.820;2023-08-21T12:19:07;8.45;;;7.75;;
40595;SDS011;26304;48.794;9.820;2023-08-21T12:21:30;7.88;;;7.13;;
40595;SDS011;26304;48.794;9.820;2023-08-21T12:23:54;8.25;;;7.47;;
40595;SDS011;26304;48.794;9.820;2023-08-21T12:26:13;8.25;;;7.50;;
40595;SDS011;26304;48.794;9.820;2023-08-21T12:28:27;7.93;;;7.38;;
40595;SDS011;26304;48.794;9.820;2023-08-21T12:30:32;6.93;;;6.53;;
40595;SDS011;26304;48.794;9.820;2023-08-21T12:32:50;8.07;;;7.47;;
40595;SDS011;26304;48.794;9.820;2023-08-21T12:35:11;8.07;;;7.47;;
40595;SDS011;26304;48.794;9.820;2023-08-21T12:37:32;7.25;;;6.53;;
40595;SDS011;26304;48.794;9.820;2023-08-21T12:39:54;8.27;;;7.57;;
40595;SDS011;26304;48.794;9.820;2023-08-21T12:42:17;7.13;;;6.60;;
40595;SDS011;26304;48.794;9.820;2023-08-21T12:44:39;7.65;;;7.05;;
40595;SDS011;26304;48.794;9.820;2023-08-21T12:46:49;7.50;;;6.97;;
40595;SDS011;26304;48.794;9.820;2023-08-21T12:49:10;6.93;;;6.53;;
40595;SDS011;26304;48.794;9.820;2023-08-21T12:51:19;8.23;;;7.50;;
40595;SDS011;26304;48.794;9.820;2023-08-21T12:53:34;7.75;;;7.25;;
40595;SDS011;26304;48.794;9.820;2023-08-21T12:55:54;7.38;;;6.78;;
40595;SDS011;26304;48.794;9.820;2023-08-21T12:58:15;7.47;;;6.97;;
40595;SDS011;26304;48.794;9.820;2023-08-21T13:00:24;7.38;;;6.78;;
40595;SDS011;26304;48.794;9.820;2023-08-21T13:02:35;7.50;;;6.88;;
40595;SDS011;26304;48.794;9.820;2023-08-21T13:04:55;7.65;;;7.05;;
40595;SDS011;26304;48.794;9.820;2023-08-21T13:07:19;7.00;;;6.53;;
40595;SDS011;26304;48.794;9.820;2023-08-21T13:09:41;6.90;;;6.40;;
40595;SDS011;26304;48.794;9.820;2023-08-21T13:12:04;7.22;;;6.68;;
40595;SDS011;26304;48.794;9.820;2023-08-21T13:14:27;7.22;;;6.55;;
40595;SDS011;26304;48.794;9.820;2023-08-21T13:16:39;7.70;;;7.07;;
40595;SDS011;26304;48.794;9.820;2023-08-21T13:18:59;7.22;;;6.72;;
40595;SDS011;26304;48.794;9.820;2023-08-21T13:21:11;7.07;;;6.43;;
40595;SDS011;26304;48.794;9.820;2023-08-21T13:23:33;7.60;;;7.00;;
40595;SDS011;26304;48.794;9.820;2023-08-21T13:25:47;8.15;;;7.47;;
40595;SDS011;26304;48.794;9.820;2023-08-21T13:27:52;8.15;;;6.88;;
40595;SDS011;26304;48.794;9.820;2023-08-21T13:29:56;7.65;;;6.82;;
40595;SDS011;26304;48.794;9.820;2023-08-21T13:32:16;7.28;;;6.57;;
40595;SDS011;26304;48.794;9.820;2023-08-21T13:34:39;9.07;;;8.30;;
40595;SDS011;26304;48.794;9.820;2023-08-21T13:37:01;8.52;;;7.72;;
40595;SDS011;26304;48.794;9.820;2023-08-21T13:39:26;10.30;;;8.07;;
40595;SDS011;26304;48.794;9.820;2023-08-21T13:41:48;9.40;;;8.48;;
40595;SDS011;26304;48.794;9.820;2023-08-21T13:44:11;8.57;;;7.78;;
40595;SDS011;26304;48.794;9.820;2023-08-21T13:46:33;10.27;;;8.43;;
40595;SDS011;26304;48.794;9.820;2023-08-21T13:48:56;11.73;;;8.25;;
40595;SDS011;26304;48.794;9.820;2023-08-21T13:50:58;8.50;;;7.80;;
40595;SDS011;26304;48.794;9.820;2023-08-21T13:53:09;8.60;;;7.78;;
40595;SDS011;26304;48.794;9.820;2023-08-21T13:55:13;9.13;;;8.23;;
40595;SDS011;26304;48.794;9.820;2023-08-21T13:57:25;9.00;;;8.00;;
40595;SDS011;26304;48.794;9.820;2023-08-21T13:59:35;8.57;;;7.47;;